createdAt,value
2022-08-03T00:03:35.029Z,67.61
2022-08-03T00:08:40.215Z,68.13
2022-08-03T00:13:43.688Z,68.17
2022-08-03T00:18:45.598Z,68.27
2022-08-03T00:23:51.446Z,68.57
2022-08-03T00:28:55.930Z,69.10
2022-08-03T00:34:03.127Z,69.46
2022-08-03T00:39:05.961Z,70.06
2022-08-03T00:49:11.498Z,69.27
2022-08-03T00:54:14.320Z,70.09
2022-08-03T00:59:20.634Z,69.77
2022-08-03T01:04:23.205Z,69.57
2022-08-03T01:09:37.683Z,68.88
2022-08-03T01:14:46.207Z,68.58
2022-08-03T01:19:54.534Z,69.00
2022-08-03T01:25:03.195Z,69.86
2022-08-03T01:30:08.356Z,70.51
2022-08-03T01:35:14.421Z,70.61
2022-08-03T01:40:17.888Z,70.77
2022-08-03T01:45:22.833Z,71.13
2022-08-03T01:50:28.229Z,70.94
2022-08-03T01:55:32.922Z,71.23
2022-08-03T02:00:38.750Z,71.10
2022-08-03T02:05:42.003Z,71.22
2022-08-03T02:10:46.073Z,71.45
2022-08-03T02:15:49.958Z,70.91
2022-08-03T02:20:52.575Z,71.60
2022-08-03T02:25:59.932Z,71.48
2022-08-03T02:31:11.969Z,71.78
2022-08-03T02:36:16.197Z,71.57
2022-08-03T02:41:23.153Z,71.75
2022-08-03T02:46:32.433Z,72.13
2022-08-03T02:51:36.924Z,71.72
2022-08-03T02:56:40.383Z,71.53
2022-08-03T03:01:45.074Z,71.92
2022-08-03T03:06:47.935Z,72.43
2022-08-03T03:11:52.344Z,72.77
2022-08-03T03:16:57.625Z,72.33
2022-08-03T03:22:02.361Z,72.29
2022-08-03T03:27:05.546Z,71.77
2022-08-03T03:32:09.392Z,71.42
2022-08-03T03:37:11.501Z,71.29
2022-08-03T03:42:14.056Z,71.22
2022-08-03T03:47:17.981Z,71.22
2022-08-03T03:52:35.120Z,71.92
2022-08-03T03:57:37.224Z,71.00
2022-08-03T04:02:40.834Z,70.42
2022-08-03T04:07:52.143Z,70.38
2022-08-03T04:12:56.458Z,70.35
2022-08-03T04:18:01.710Z,70.54
2022-08-03T04:23:05.430Z,70.45
2022-08-03T04:28:31.386Z,70.87
2022-08-03T04:33:38.787Z,71.34
2022-08-03T04:38:53.049Z,71.35
2022-08-03T04:43:57.675Z,71.08
2022-08-03T04:49:01.497Z,70.13
2022-08-03T04:54:03.480Z,67.99
2022-08-03T04:59:05.153Z,63.29
2022-08-03T05:04:08.253Z,55.19
2022-08-03T05:09:09.979Z,50.12
2022-08-03T05:14:11.757Z,46.80
2022-08-03T05:19:14.843Z,43.61
2022-08-03T05:24:17.181Z,41.83
2022-08-03T05:29:19.067Z,39.66
2022-08-03T05:34:22.597Z,38.36
2022-08-03T05:39:24.689Z,36.68
2022-08-03T05:44:26.872Z,36.42
2022-08-03T05:49:30.393Z,33.93
2022-08-03T05:54:56.170Z,34.70
2022-08-03T05:59:58.347Z,35.46
2022-08-03T06:05:02.471Z,36.98
2022-08-03T06:10:36.897Z,33.33
2022-08-03T06:15:28.101Z,36.01
2022-08-03T06:20:31.648Z,34.85
2022-08-03T06:25:33.899Z,28.81
2022-08-03T06:30:36.389Z,29.00
2022-08-03T06:35:42.455Z,30.71
2022-08-03T06:40:46.808Z,30.83
2022-08-03T06:45:53.027Z,30.48
2022-08-03T06:50:56.435Z,29.73
2022-08-03T06:55:58.739Z,31.76
2022-08-03T07:01:01.100Z,29.43
2022-08-03T07:06:04.640Z,30.62
2022-08-03T07:11:06.897Z,29.72
2022-08-03T07:16:08.944Z,29.77
2022-08-03T07:21:12.439Z,30.68
2022-08-03T07:26:14.918Z,30.69
2022-08-03T07:31:17.093Z,31.26
2022-08-03T07:36:20.809Z,31.43
2022-08-03T07:41:22.846Z,32.32
2022-08-03T07:46:24.888Z,31.39
2022-08-03T07:51:30.396Z,30.63
2022-08-03T07:56:32.611Z,31.46
2022-08-03T08:01:34.782Z,30.95
2022-08-03T08:06:38.260Z,30.62
2022-08-03T08:11:41.592Z,29.24
2022-08-03T08:16:43.588Z,30.00
2022-08-03T08:21:53.813Z,28.86
2022-08-03T08:27:05.362Z,28.66
2022-08-03T08:32:07.413Z,29.49
2022-08-03T08:37:10.936Z,27.25
2022-08-03T08:42:13.178Z,27.65
2022-08-03T08:47:15.597Z,27.37
2022-08-03T08:52:24.969Z,26.63
2022-08-03T08:57:42.459Z,26.41
2022-08-03T09:02:46.773Z,24.89
2022-08-03T09:07:50.772Z,23.96
2022-08-03T09:12:53.442Z,22.13
2022-08-03T09:17:58.709Z,22.79
2022-08-03T09:23:14.022Z,22.44
2022-08-03T09:28:59.894Z,21.32
2022-08-03T09:34:01.646Z,22.83
2022-08-03T09:39:07.263Z,21.92
2022-08-03T09:44:09.368Z,21.64
2022-08-03T09:49:27.309Z,21.69
2022-08-03T09:54:31.843Z,20.89
2022-08-03T09:59:34.704Z,21.69
2022-08-03T10:04:47.624Z,21.56
2022-08-03T10:10:30.576Z,19.58
2022-08-03T10:16:22.592Z,19.26
2022-08-03T10:20:49.884Z,21.03
2022-08-03T10:25:58.839Z,19.96
2022-08-03T10:31:02.580Z,17.93
2022-08-03T10:36:07.238Z,19.07
2022-08-03T10:41:11.347Z,20.88
2022-08-03T10:46:16.070Z,23.69
2022-08-03T10:51:20.366Z,22.69
2022-08-03T10:56:49.700Z,22.71
2022-08-03T11:01:58.766Z,22.47
2022-08-03T11:07:21.134Z,23.05
2022-08-03T11:12:30.457Z,23.68
2022-08-03T11:17:46.321Z,25.79
2022-08-03T11:22:56.982Z,23.79
2022-08-03T11:28:27.676Z,25.73
2022-08-03T11:33:31.174Z,25.25
2022-08-03T11:38:33.307Z,25.16
2022-08-03T11:43:47.106Z,25.93
2022-08-03T11:48:51.393Z,25.76
2022-08-03T11:53:55.261Z,27.50
2022-08-03T11:59:17.952Z,26.43
2022-08-03T12:04:21.562Z,25.37
2022-08-03T12:09:23.615Z,24.88
2022-08-03T12:14:48.576Z,24.98
2022-08-03T12:19:50.511Z,25.86
2022-08-03T12:24:52.514Z,25.88
2022-08-03T12:29:59.028Z,26.73
2022-08-03T12:35:02.295Z,26.76
2022-08-03T12:40:10.071Z,25.81
2022-08-03T12:45:21.172Z,26.00
2022-08-03T12:50:31.351Z,26.21
2022-08-03T12:55:56.513Z,25.99
2022-08-03T13:00:58.331Z,25.59
2022-08-03T13:06:00.336Z,26.70
2022-08-03T13:11:20.920Z,26.38
2022-08-03T13:16:24.717Z,26.59
2022-08-03T13:21:26.783Z,26.15
2022-08-03T13:26:28.859Z,25.97
2022-08-03T13:31:32.485Z,26.40
2022-08-03T13:36:59.220Z,25.47
2022-08-03T13:41:57.357Z,26.82
2022-08-03T13:47:00.469Z,26.43
2022-08-03T13:52:02.770Z,26.06
2022-08-03T13:58:04.730Z,26.51
2022-08-03T14:02:28.949Z,26.32
2022-08-03T14:07:31.192Z,26.69
2022-08-03T14:12:33.230Z,25.93
2022-08-03T14:17:42.364Z,25.94
2022-08-03T14:22:52.276Z,24.67
2022-08-03T14:27:54.361Z,25.28
2022-08-03T14:33:00.703Z,26.21
2022-08-03T14:38:03.645Z,25.38
2022-08-03T14:43:05.804Z,26.01
2022-08-03T14:50:29.532Z,25.17
2022-08-03T14:53:32.429Z,25.19
2022-08-03T14:58:34.494Z,25.84
2022-08-03T15:03:37.739Z,25.61
2022-08-03T15:08:39.887Z,24.60
2022-08-03T15:13:41.699Z,25.25
2022-08-03T15:18:45.253Z,25.82
2022-08-03T15:23:47.384Z,24.68
2022-08-03T15:28:49.705Z,25.53
2022-08-03T15:33:53.483Z,25.04
2022-08-03T15:38:55.796Z,24.54
2022-08-03T15:43:57.919Z,24.99
2022-08-03T15:49:01.456Z,24.95
2022-08-03T15:54:03.252Z,24.75
2022-08-03T15:59:12.199Z,24.32
2022-08-03T16:04:17.029Z,25.35
2022-08-03T16:09:24.262Z,25.01
2022-08-03T16:14:51.831Z,24.53
2022-08-03T16:19:56.597Z,24.47
2022-08-03T16:25:00.099Z,24.52
2022-08-03T16:30:02.141Z,25.04
2022-08-03T16:35:06.478Z,25.20
2022-08-03T16:40:19.347Z,24.36
2022-08-03T16:45:22.262Z,24.97
2022-08-03T16:50:25.823Z,25.16
2022-08-03T16:55:43.216Z,26.17
2022-08-03T17:00:51.009Z,26.36
2022-08-03T17:05:54.466Z,27.60
2022-08-03T17:11:01.822Z,26.59
2022-08-03T17:16:05.714Z,26.86
2022-08-03T17:21:12.036Z,27.39
2022-08-03T17:26:21.164Z,28.82
2022-08-03T17:31:31.725Z,28.99
2022-08-03T17:37:02.659Z,31.77
2022-08-03T17:41:59.254Z,29.63
2022-08-03T17:52:31.302Z,29.89
2022-08-03T17:58:01.448Z,29.62
2022-08-03T18:03:15.370Z,29.91
2022-08-03T18:08:24.801Z,31.60
2022-08-03T18:13:30.835Z,32.60
2022-08-03T18:18:36.913Z,33.64
2022-08-03T18:23:42.898Z,34.43
2022-08-03T18:28:47.670Z,35.19
2022-08-03T18:34:32.534Z,35.82
2022-08-03T18:39:19.656Z,36.78
2022-08-03T18:44:53.390Z,37.47
2022-08-03T18:49:56.033Z,38.91
2022-08-03T18:55:13.977Z,39.89
2022-08-03T19:00:42.442Z,40.67
2022-08-03T19:06:02.678Z,40.93
2022-08-03T19:11:17.763Z,42.14
2022-08-03T19:16:27.586Z,42.76
2022-08-03T19:21:30.867Z,44.88
2022-08-03T19:26:36.052Z,44.66
2022-08-03T19:31:39.477Z,44.93
2022-08-03T19:37:03.635Z,45.22
2022-08-03T19:42:23.209Z,47.32
2022-08-03T19:47:36.312Z,47.00
2022-08-03T19:52:40.261Z,47.78
2022-08-03T19:57:49.254Z,48.15
2022-08-03T20:02:51.248Z,48.19
2022-08-03T20:07:53.248Z,49.07
2022-08-03T20:13:00.019Z,49.67
2022-08-03T20:18:01.928Z,49.58
2022-08-03T20:23:07.256Z,49.78
2022-08-03T20:28:13.921Z,50.59
2022-08-03T20:33:48.770Z,51.53
2022-08-03T20:38:53.148Z,52.48
2022-08-03T20:43:59.453Z,52.07
2022-08-03T20:49:03.946Z,53.27
2022-08-03T20:59:36.908Z,53.81
2022-08-03T21:04:50.224Z,54.87
2022-08-03T21:09:57.061Z,55.22
2022-08-03T21:13:07.723Z,52.91
2022-08-03T21:15:04.689Z,55.84
2022-08-03T21:20:09.133Z,55.72
2022-08-03T21:25:15.017Z,55.55
2022-08-03T21:30:20.556Z,55.75
2022-08-03T21:35:23.914Z,55.60
2022-08-03T21:40:25.714Z,56.39
2022-08-03T21:45:29.379Z,57.70
2022-08-03T21:50:35.916Z,57.47
2022-08-03T21:55:38.908Z,57.53
2022-08-03T22:00:43.180Z,57.30
2022-08-03T22:05:45.581Z,58.40
2022-08-03T22:10:50.780Z,58.79
2022-08-03T22:15:54.419Z,59.09
2022-08-03T22:20:57.534Z,58.60
2022-08-03T22:26:03.700Z,58.83
2022-08-03T22:31:31.025Z,59.07
2022-08-03T22:36:30.764Z,59.82
2022-08-03T22:41:33.038Z,60.70
2022-08-03T22:46:38.009Z,60.77
2022-08-03T22:51:40.831Z,60.46
2022-08-03T22:56:46.719Z,61.60
2022-08-03T23:01:52.639Z,61.91
2022-08-03T23:06:57.463Z,62.05
2022-08-03T23:12:01.404Z,62.82
2022-08-03T23:17:05.336Z,62.11
2022-08-03T23:22:08.170Z,61.84
2022-08-03T23:27:31.635Z,62.13
2022-08-03T23:32:35.997Z,62.77
2022-08-03T23:38:04.760Z,63.44
2022-08-03T23:43:02.458Z,63.67
2022-08-03T23:48:07.810Z,63.58
2022-08-03T23:53:18.518Z,65.49
2022-08-03T23:58:37.298Z,64.06
